Time;durP1;ratioP1;P1;durP2;ratioP2;P2;SDS_P1;SDS_P2;PMS_P1;PMS_P2;Temp;Humidity;BMP_temperature;BMP_pressure;BME280_temperature;BME280_humidity;BME280_pressure;Samples;Min_cycle;Max_cycle;Signal;HPM_P1;HPM_P2
2022/08/04 00:00:46;;;;;;;16.87;6.67;;;;;;;20.40;100.00;102005.84;7391972;19;20458;-61
2022/08/04 00:03:21;;;;;;;12.83;6.20;;;;;;;20.29;100.00;101940.97;7391061;19;20967;-61
2022/08/04 00:05:57;;;;;;;14.07;6.50;;;;;;;20.28;100.00;101871.09;7396396;19;20384;-60
2022/08/04 00:08:46;;;;;;;16.00;8.03;;;;;;;20.30;100.00;101805.63;7387007;19;20414;-61
2022/08/04 00:11:17;;;;;;;15.87;6.87;;;;;;;20.26;100.00;101773.25;7394624;19;20376;-60
2022/08/04 00:13:52;;;;;;;12.37;6.03;;;;;;;20.23;100.00;101705.06;7388424;19;20413;-60
2022/08/04 00:16:35;;;;;;;13.97;7.37;;;;;;;20.21;100.00;101629.06;7396309;19;20400;-61
2022/08/04 00:19:11;;;;;;;95.53;71.13;;;;;;;20.25;100.00;101593.31;7388108;19;20418;-61
2022/08/04 00:21:44;;;;;;;15.33;7.73;;;;;;;20.20;100.00;101537.38;7395440;19;20391;-60
2022/08/04 00:24:14;;;;;;;20.53;13.13;;;;;;;20.20;100.00;101505.94;7389090;19;20414;-61
2022/08/04 00:26:45;;;;;;;14.00;8.33;;;;;;;20.17;100.00;101412.47;7395373;19;20735;-61
2022/08/04 00:29:16;;;;;;;23.30;13.70;;;;;;;20.22;100.00;101394.19;7387029;19;20510;-60
2022/08/04 00:31:48;;;;;;;24.20;14.63;;;;;;;20.20;100.00;101361.88;7394255;19;20388;-60
2022/08/04 00:34:27;;;;;;;17.40;10.97;;;;;;;20.10;100.00;101330.31;7398293;19;20435;-61
2022/08/04 00:36:58;;;;;;;18.13;9.40;;;;;;;20.05;100.00;101292.72;7395562;19;20391;-60
2022/08/04 00:39:28;;;;;;;17.03;8.60;;;;;;;20.06;100.00;101247.31;7391932;19;21056;-61
2022/08/04 00:42:19;;;;;;;21.97;12.43;;;;;;;20.06;100.00;101217.66;7392102;19;20386;-60
2022/08/04 00:45:00;;;;;;;18.47;8.67;;;;;;;20.06;100.00;101202.81;7394612;19;20411;-61
2022/08/04 00:47:43;;;;;;;21.43;10.53;;;;;;;20.13;100.00;101195.00;7387709;19;20394;-60
2022/08/04 00:50:20;;;;;;;23.20;9.60;;;;;;;20.13;100.00;101179.28;7392661;19;20419;-60
2022/08/04 00:53:03;;;;;;;16.00;8.90;;;;;;;20.17;100.00;101178.47;7388168;19;20429;-62
2022/08/04 00:55:55;;;;;;;13.23;8.57;;;;;;;20.13;100.00;101179.28;7396193;19;20737;-61
2022/08/04 00:58:31;;;;;;;17.77;7.60;;;;;;;20.03;100.00;101173.09;7388786;19;20411;-61
2022/08/04 01:01:03;;;;;;;13.00;8.07;;;;;;;19.94;100.00;101156.41;7396575;19;20395;-61
2022/08/04 01:03:49;;;;;;;12.10;7.30;;;;;;;19.89;100.00;101150.25;7391065;19;20407;-61
2022/08/04 01:06:37;;;;;;;14.87;7.63;;;;;;;19.84;100.00;101139.75;7396426;19;20917;-60
2022/08/04 01:09:28;;;;;;;14.13;7.30;;;;;;;19.80;100.00;101134.47;7388873;19;20433;-59
2022/08/04 01:12:23;;;;;;;13.73;6.80;;;;;;;19.73;100.00;101130.91;7395055;19;20394;-60
2022/08/04 01:15:04;;;;;;;14.13;7.43;;;;;;;19.73;100.00;101133.53;7395710;19;20961;-60
2022/08/04 01:17:47;;;;;;;13.90;7.23;;;;;;;19.71;100.00;101130.03;7390135;19;20438;-60
2022/08/04 01:20:23;;;;;;;13.67;6.80;;;;;;;19.69;100.00;101116.06;7398173;19;20433;-60
2022/08/04 01:23:25;;;;;;;10.07;5.90;;;;;;;19.67;100.00;101118.66;7389070;19;20398;-61
2022/08/04 01:26:20;;;;;;;12.17;7.07;;;;;;;19.70;100.00;101116.03;7395416;19;20379;-60
2022/08/04 01:29:13;;;;;;;15.87;10.00;;;;;;;19.74;100.00;101114.34;7387551;19;20431;-61
2022/08/04 01:31:52;;;;;;;16.97;9.33;;;;;;;19.80;100.00;101111.78;7395932;19;21353;-61
2022/08/04 01:34:23;;;;;;;27.23;18.43;;;;;;;19.90;100.00;101109.25;7389201;19;20423;-61
2022/08/04 01:37:01;;;;;;;41.50;27.20;;;;;;;19.87;100.00;101115.34;7395141;19;20390;-61
2022/08/04 01:39:42;;;;;;;23.17;15.10;;;;;;;19.89;100.00;101107.50;7391717;19;20403;-61
2022/08/04 01:42:12;;;;;;;36.33;22.03;;;;;;;19.95;100.00;101115.41;7387699;19;20384;-61
2022/08/04 01:45:05;;;;;;;31.63;17.93;;;;;;;19.98;100.00;101118.06;7390080;19;20423;-61
2022/08/04 01:47:37;;;;;;;18.53;10.60;;;;;;;19.79;100.00;101120.50;7389847;19;21119;-61
2022/08/04 01:50:09;;;;;;;21.97;13.67;;;;;;;19.82;100.00;101114.41;7393724;19;20408;-61
2022/08/04 01:52:40;;;;;;;20.70;13.23;;;;;;;19.77;100.00;101119.63;7388824;19;20414;-61
2022/08/04 01:55:11;;;;;;;18.60;12.00;;;;;;;19.78;100.00;101115.22;7395320;19;20383;-61
2022/08/04 01:57:45;;;;;;;15.70;8.40;;;;;;;19.70;100.00;101110.81;7392348;19;20926;-61
2022/08/04 02:00:18;;;;;;;18.23;5.50;;;;;;;19.59;100.00;101109.84;7393072;19;20451;-60
2022/08/04 02:02:48;;;;;;;17.03;5.63;;;;;;;19.56;100.00;101118.56;7389202;19;20411;-61
2022/08/04 02:05:20;;;;;;;10.83;5.30;;;;;;;19.59;100.00;101114.19;7394686;19;20388;-61
2022/08/04 02:08:04;;;;;;;13.00;6.00;;;;;;;19.52;100.00;101108.91;7389404;19;20417;-61
2022/08/04 02:10:48;;;;;;;10.73;6.70;;;;;;;19.44;100.00;101105.34;7394640;19;20412;-60
2022/08/04 02:13:24;;;;;;;9.50;5.50;;;;;;;19.47;100.00;101109.72;7387498;19;20409;-60
2022/08/04 02:16:03;;;;;;;14.90;7.67;;;;;;;19.45;100.00;101107.09;7393903;19;20744;-61
2022/08/04 02:18:35;;;;;;;10.13;6.47;;;;;;;19.46;100.00;101106.22;7387831;19;20417;-60
2022/08/04 02:21:05;;;;;;;11.70;6.43;;;;;;;19.42;100.00;101100.09;7394450;19;20398;-61
2022/08/04 02:23:38;;;;;;;10.30;5.93;;;;;;;19.41;100.00;101100.06;7389398;19;20426;-60
2022/08/04 02:26:12;;;;;;;10.33;6.37;;;;;;;19.47;100.00;101100.13;7394441;19;20392;-60
2022/08/04 02:28:56;;;;;;;12.20;6.00;;;;;;;19.45;100.00;101096.63;7387745;19;20418;-60
2022/08/04 02:31:32;;;;;;;16.37;7.50;;;;;;;19.47;100.00;101094.88;7394104;19;20391;-60
2022/08/04 02:34:08;;;;;;;8.47;6.13;;;;;;;19.42;100.00;101104.44;7388525;19;20414;-60
2022/08/04 02:36:39;;;;;;;12.97;7.17;;;;;;;19.38;100.00;101100.03;7398212;19;20928;-60
2022/08/04 02:39:10;;;;;;;17.13;7.10;;;;;;;19.38;100.00;101106.13;7386960;19;20421;-61
2022/08/04 02:41:41;;;;;;;19.97;6.80;;;;;;;19.35;100.00;101100.88;7393560;19;20383;-61
2022/08/04 02:44:11;;;;;;;9.63;5.77;;;;;;;19.41;100.00;101097.44;7388039;19;20415;-61
2022/08/04 02:46:44;;;;;;;17.43;6.43;;;;;;;19.35;100.00;101102.59;7393817;19;20730;-61
2022/08/04 02:49:13;;;;;;;15.60;6.37;;;;;;;19.29;100.00;101104.28;7386726;19;20414;-61
2022/08/04 02:51:45;;;;;;;14.83;7.07;;;;;;;19.30;100.00;101098.19;7393760;19;20918;-61
2022/08/04 02:54:17;;;;;;;17.13;7.50;;;;;;;19.30;100.00;101098.19;7385884;19;20445;-60
2022/08/04 02:57:02;;;;;;;9.77;6.57;;;;;;;19.28;100.00;101102.53;7387549;19;20384;-61
2022/08/04 02:59:46;;;;;;;12.50;6.90;;;;;;;19.32;100.00;101097.38;7391331;19;20411;-60
2022/08/04 03:02:26;;;;;;;16.50;6.93;;;;;;;19.31;100.00;101093.84;7388174;19;20398;-60
2022/08/04 03:04:59;;;;;;;9.77;5.60;;;;;;;19.23;100.00;101099.00;7391861;19;20423;-60
2022/08/04 03:08:06;;;;;;;10.33;5.33;;;;;;;19.22;100.00;101089.41;7386541;19;20755;-61
2022/08/04 03:10:59;;;;;;;8.87;5.63;;;;;;;19.19;100.00;101088.47;7395736;19;20981;-60
2022/08/04 03:14:10;;;;;;;8.80;5.27;;;;;;;19.19;100.00;101088.47;7385452;19;20995;-61
2022/08/04 03:17:02;;;;;;;88.27;52.17;;;;;;;19.21;100.00;101086.75;7392054;19;20379;-60
2022/08/04 03:20:12;;;;;;;69.73;39.67;;;;;;;19.32;100.00;101079.06;7390265;19;20424;-61
2022/08/04 03:22:55;;;;;;;63.17;38.07;;;;;;;19.30;100.00;101082.50;7387350;19;20941;-61
2022/08/04 03:26:24;;;;;;;49.70;27.40;;;;;;;19.33;100.00;101088.66;7392763;19;20968;-61
2022/08/04 03:29:23;;;;;;;31.10;16.10;;;;;;;19.26;100.00;101079.84;7382550;19;20752;-60
2022/08/04 03:32:36;;;;;;;18.00;9.33;;;;;;;19.19;100.00;101089.38;7386510;19;20391;-60
2022/08/04 03:35:18;;;;;;;22.97;12.60;;;;;;;19.16;100.00;101084.09;7392571;19;20388;-60
2022/08/04 03:38:13;;;;;;;14.33;7.63;;;;;;;19.19;100.00;101081.53;7386400;19;20410;-60
2022/08/04 03:40:59;;;;;;;18.50;8.90;;;;;;;19.15;100.00;101087.56;7391984;19;20395;-60
2022/08/04 03:43:50;;;;;;;25.90;8.10;;;;;;;19.22;100.00;101083.31;7385258;19;20825;-60
2022/08/04 03:46:56;;;;;;;17.33;8.80;;;;;;;19.26;100.00;101090.31;7391734;19;20376;-60
2022/08/04 03:49:49;;;;;;;24.20;13.47;;;;;;;19.18;100.00;101082.41;7389503;19;20433;-60
2022/08/04 03:55:43;;;;;;;16.77;10.17;;;;;;;19.15;100.00;101083.25;7395478;19;20396;-60
2022/08/04 03:58:41;;;;;;;13.03;7.13;;;;;;;19.09;100.00;101082.28;7385274;19;20407;-60
2022/08/04 04:01:19;;;;;;;15.70;9.30;;;;;;;19.15;100.00;101084.97;7391797;19;20969;-60
2022/08/04 04:04:17;;;;;;;13.30;7.97;;;;;;;19.16;100.00;101089.31;7386306;19;20430;-61
2022/08/04 04:07:12;;;;;;;14.87;9.17;;;;;;;19.24;100.00;101082.47;7391905;19;20406;-60
2022/08/04 04:10:09;;;;;;;113.90;73.67;;;;;;;19.36;100.00;101088.66;7389414;19;20411;-60
2022/08/04 04:12:58;;;;;;;18.37;11.77;;;;;;;19.41;100.00;101086.97;7387807;19;20420;-61
2022/08/04 04:15:38;;;;;;;23.43;16.27;;;;;;;19.46;100.00;101080.06;7392111;19;20402;-60
2022/08/04 04:18:33;;;;;;;30.17;20.30;;;;;;;19.42;100.00;101086.13;7391093;19;20770;-60
2022/08/04 04:21:29;;;;;;;36.20;21.20;;;;;;;19.49;100.00;101089.69;7398568;19;20407;-60
2022/08/04 04:24:21;;;;;;;22.43;15.03;;;;;;;19.49;100.00;101092.31;7392438;19;20448;-60
2022/08/04 04:26:58;;;;;;;24.80;16.07;;;;;;;19.48;100.00;101091.41;7398457;19;20394;-60
2022/08/04 04:29:48;;;;;;;25.67;15.10;;;;;;;19.58;100.00;101097.59;7395326;19;20933;-60
2022/08/04 04:32:25;;;;;;;16.90;11.57;;;;;;;19.60;100.00;101101.13;7390072;19;20390;-61
2022/08/04 04:35:09;;;;;;;16.13;10.00;;;;;;;19.61;100.00;101099.38;7396493;19;20410;-60
2022/08/04 04:38:11;;;;;;;25.40;15.63;;;;;;;19.80;100.00;101100.44;7392070;19;20411;-60
2022/08/04 04:40:50;;;;;;;13.50;8.27;;;;;;;19.72;100.00;101096.84;7392887;19;20435;-60
2022/08/04 04:43:50;;;;;;;25.13;13.97;;;;;;;19.77;100.00;101106.53;7392214;19;20423;-61
2022/08/04 04:46:29;;;;;;;16.40;11.20;;;;;;;19.83;100.00;101100.47;7397827;19;20395;-61
2022/08/04 04:49:05;;;;;;;27.17;16.63;;;;;;;19.79;100.00;101093.47;7389775;19;20439;-60
2022/08/04 04:51:39;;;;;;;36.63;24.63;;;;;;;19.84;100.00;101095.25;7397367;19;20379;-59
2022/08/04 04:54:15;;;;;;;26.37;16.73;;;;;;;19.75;100.00;101083.81;7390888;19;20964;-61
2022/08/04 04:56:48;;;;;;;29.07;18.70;;;;;;;19.80;100.00;101088.22;7396843;19;20394;-60
2022/08/04 04:59:24;;;;;;;15.47;9.97;;;;;;;19.91;100.00;101090.94;7389344;19;20419;-61
2022/08/04 05:02:16;;;;;;;20.00;14.43;;;;;;;19.92;100.00;101087.47;7396790;19;20406;-61
2022/08/04 05:05:05;;;;;;;15.17;9.27;;;;;;;20.00;100.00;101086.66;7398762;19;20495;-60
2022/08/04 05:08:07;;;;;;;17.93;9.30;;;;;;;20.07;100.00;101080.63;7391007;19;20391;-61
2022/08/04 05:11:13;;;;;;;10.97;5.50;;;;;;;20.05;100.00;101080.59;7396878;19;20384;-61
2022/08/04 05:13:46;;;;;;;8.50;4.60;;;;;;;20.00;100.00;101082.28;7388629;19;20435;-61
2022/08/04 05:16:42;;;;;;;12.47;4.83;;;;;;;20.01;100.00;101078.84;7397008;19;20383;-61
2022/08/04 05:19:21;;;;;;;10.27;5.07;;;;;;;20.06;100.00;101084.97;7389228;19;20494;-60
2022/08/04 05:21:54;;;;;;;11.27;4.73;;;;;;;20.08;100.00;101083.25;7396366;19;20384;-60
2022/08/04 05:24:25;;;;;;;11.33;4.60;;;;;;;20.13;100.00;101087.63;7390133;19;20415;-60
2022/08/04 05:26:57;;;;;;;9.87;6.40;;;;;;;20.19;100.00;101077.19;7395141;19;20914;-60
2022/08/04 05:29:29;;;;;;;9.53;4.10;;;;;;;20.27;100.00;101080.75;7393577;19;21092;-60
2022/08/04 05:32:05;;;;;;;9.87;5.80;;;;;;;20.33;100.00;101080.81;7390223;19;20392;-65
2022/08/04 05:34:41;;;;;;;8.43;4.40;;;;;;;20.36;100.00;101078.19;7394552;19;20917;-60
2022/08/04 05:37:12;;;;;;;8.00;4.50;;;;;;;20.42;100.00;101077.38;7390688;19;20387;-60
2022/08/04 05:39:52;;;;;;;9.67;4.00;;;;;;;20.49;100.00;101079.16;7392935;19;20950;-60
2022/08/04 05:42:22;;;;;;;9.20;3.90;;;;;;;20.63;100.00;101080.97;7389156;19;20407;-61
2022/08/04 05:44:52;;;;;;;6.93;3.90;;;;;;;20.67;100.00;101072.25;7395501;19;20448;-60
2022/08/04 05:47:24;;;;;;;5.30;3.60;;;;;;;20.75;100.00;101069.66;7389322;19;20746;-61
2022/08/04 05:49:54;;;;;;;12.13;4.30;;;;;;;20.82;100.00;101068.81;7395205;19;20435;-61
2022/08/04 05:52:32;;;;;;;11.27;5.40;;;;;;;20.98;100.00;101066.28;7390032;19;20415;-60
2022/08/04 05:55:02;;;;;;;6.37;3.90;;;;;;;21.08;100.00;101068.06;7394314;19;20384;-60
2022/08/04 05:57:32;;;;;;;15.87;3.57;;;;;;;21.16;100.00;101068.06;7388114;19;20407;-61
2022/08/04 06:00:04;;;;;;;7.50;3.87;;;;;;;21.22;100.00;101062.00;7392467;19;20411;-60
2022/08/04 06:02:57;;;;;;;9.20;4.13;;;;;;;21.36;100.00;101064.63;7389219;19;20758;-60
2022/08/04 06:05:27;;;;;;;10.23;5.17;;;;;;;21.40;100.00;101069.91;7395237;19;20384;-61
2022/08/04 06:07:57;;;;;;;7.00;3.67;;;;;;;21.52;100.00;101073.38;7387276;19;20415;-60
2022/08/04 06:10:42;;;;;;;13.57;3.57;;;;;;;21.62;100.00;101079.53;7392469;19;20976;-61
2022/08/04 06:13:13;;;;;;;11.07;4.60;;;;;;;21.71;100.00;101069.97;7384921;19;20399;-61
2022/08/04 06:16:03;;;;;;;5.73;3.50;;;;;;;21.74;100.00;101070.81;7391189;19;20394;-61
2022/08/04 06:18:37;;;;;;;13.57;4.63;;;;;;;21.84;100.00;101070.81;7386390;19;20415;-61
2022/08/04 06:21:29;;;;;;;9.80;4.60;;;;;;;21.95;100.00;101070.81;7397822;19;20391;-61
2022/08/04 06:24:00;;;;;;;22.50;8.60;;;;;;;22.05;100.00;101074.31;7387798;19;20731;-61
2022/08/04 06:26:35;;;;;;;16.60;4.03;;;;;;;22.14;100.00;101069.94;7393824;19;20445;-60
2022/08/04 06:29:09;;;;;;;56.10;27.17;;;;;;;22.21;100.00;101072.53;7386398;19;20459;-61
2022/08/04 06:31:45;;;;;;;11.17;4.40;;;;;;;22.31;100.00;101075.16;7394785;19;21122;-61
2022/08/04 06:34:37;;;;;;;25.60;10.93;;;;;;;22.40;100.00;101069.84;7392960;19;20418;-61
2022/08/04 06:37:08;;;;;;;6.00;3.10;;;;;;;22.48;100.00;101073.38;7391074;19;20379;-61
2022/08/04 06:39:37;;;;;;;16.07;6.50;;;;;;;22.56;100.00;101075.13;7389599;19;20403;-61
2022/08/04 06:42:07;;;;;;;159.43;97.43;;;;;;;22.71;100.00;101064.53;7389929;19;20399;-61
2022/08/04 06:44:53;;;;;;;25.97;13.60;;;;;;;22.77;100.00;101068.91;7395276;19;20406;-60
2022/08/04 06:47:23;;;;;;;24.37;7.57;;;;;;;22.82;100.00;101066.25;7386090;19;20413;-61
2022/08/04 06:49:57;;;;;;;17.57;6.23;;;;;;;22.89;100.00;101067.97;7391655;19;20408;-61
2022/08/04 06:52:47;;;;;;;11.70;6.13;;;;;;;23.01;100.00;101073.19;7387609;19;20403;-61
2022/08/04 06:55:17;;;;;;;139.00;56.37;;;;;;;23.10;100.00;101074.00;7391653;19;20918;-60
2022/08/04 06:57:47;;;;;;;176.83;78.63;;;;;;;23.15;100.00;101069.59;7387407;19;20402;-61
2022/08/04 07:00:19;;;;;;;44.03;20.13;;;;;;;23.26;100.00;101067.78;7390896;19;20404;-61
2022/08/04 07:02:52;;;;;;;19.53;8.17;;;;;;;23.38;100.00;101079.16;7386385;19;20395;-61
2022/08/04 07:05:24;;;;;;;11.60;4.50;;;;;;;23.52;100.00;101079.91;7392950;19;20727;-61
2022/08/04 07:07:55;;;;;;;55.80;27.07;;;;;;;23.54;100.00;101085.19;7386747;19;20415;-62
2022/08/04 07:10:27;;;;;;;13.53;5.43;;;;;;;23.68;100.00;101093.00;7390535;19;20448;-61
2022/08/04 07:12:57;;;;;;;8.83;3.90;;;;;;;23.80;100.00;101106.06;7387312;19;20426;-61
2022/08/04 07:15:27;;;;;;;20.90;9.43;;;;;;;23.89;100.00;101107.72;7391729;19;20459;-61
2022/08/04 07:18:00;;;;;;;45.27;19.50;;;;;;;24.00;100.00;101112.91;7386212;19;20850;-61
2022/08/04 07:20:34;;;;;;;18.73;8.03;;;;;;;24.17;100.00;101112.78;7390945;19;20419;-61
2022/08/04 07:23:05;;;;;;;24.10;12.00;;;;;;;24.30;100.00;101116.16;7386166;19;20403;-61
2022/08/04 07:25:36;;;;;;;23.67;12.73;;;;;;;24.34;100.00;101117.88;7392691;19;20465;-61
2022/08/04 07:28:26;;;;;;;17.83;9.47;;;;;;;24.45;100.00;101136.22;7385928;19;20403;-61
2022/08/04 07:30:58;;;;;;;9.53;5.40;;;;;;;24.54;100.00;101135.25;7392418;19;20719;-61
2022/08/04 07:33:28;;;;;;;16.23;6.33;;;;;;;24.68;100.00;101141.25;7385933;19;20418;-61
2022/08/04 07:36:00;;;;;;;9.00;3.57;;;;;;;24.86;100.00;101146.38;7391374;19;20392;-61
2022/08/04 07:38:40;;;;;;;15.30;10.30;;;;;;;25.00;100.00;101148.84;7384947;19;20423;-61
2022/08/04 07:41:22;;;;;;;13.83;5.73;;;;;;;25.20;100.00;101170.59;7391745;19;20376;-61
2022/08/04 07:44:09;;;;;;;18.23;7.27;;;;;;;25.32;100.00;101176.59;7388425;19;20443;-61
2022/08/04 07:46:39;;;;;;;16.80;11.70;;;;;;;25.39;100.00;101187.94;7390853;19;20386;-61
2022/08/04 07:49:09;;;;;;;19.13;12.30;;;;;;;25.41;100.00;101191.44;7385085;19;20425;-61
2022/08/04 07:51:41;;;;;;;16.27;10.97;;;;;;;25.54;100.00;101192.19;7399289;19;20394;-61
2022/08/04 07:54:11;;;;;;;30.90;19.43;;;;;;;25.64;100.00;101199.09;7393001;19;20423;-61
2022/08/04 07:56:42;;;;;;;25.80;14.83;;;;;;;25.71;100.00;101216.59;7396840;19;20396;-62
2022/08/04 07:59:12;;;;;;;21.27;11.80;;;;;;;25.85;100.00;101229.59;7390311;19;20798;-61
2022/08/04 08:01:42;;;;;;;37.07;24.77;;;;;;;25.82;100.00;101234.03;7399433;19;20406;-61
2022/08/04 08:04:12;;;;;;;42.00;25.73;;;;;;;25.93;100.00;101257.69;7391993;19;20411;-61
2022/08/04 08:06:44;;;;;;;18.70;5.37;;;;;;;26.13;100.00;101292.63;7398925;19;20383;-62
2022/08/04 08:09:16;;;;;;;23.03;9.03;;;;;;;26.27;100.00;101295.09;7391610;19;20434;-62
2022/08/04 08:11:48;;;;;;;44.37;22.07;;;;;;;26.28;100.00;101288.03;7397047;19;20422;-61
2022/08/04 08:14:38;;;;;;;25.70;13.43;;;;;;;26.32;100.00;101288.84;7397651;19;20758;-61
2022/08/04 08:17:09;;;;;;;64.43;33.10;;;;;;;26.35;100.00;101305.53;7389447;19;20394;-62
2022/08/04 08:19:38;;;;;;;15.90;6.50;;;;;;;26.33;100.00;101325.84;7395709;19;20403;-62
2022/08/04 08:22:13;;;;;;;10.80;4.27;;;;;;;26.63;100.00;101365.06;7395307;19;20387;-61
2022/08/04 08:24:42;;;;;;;18.90;4.57;;;;;;;26.95;100.00;101281.63;7398122;19;20397;-61
2022/08/04 08:27:12;;;;;;;10.20;4.13;;;;;;;27.13;100.00;100757.97;7392362;19;20384;-61
2022/08/04 08:29:42;;;;;;;17.83;7.90;;;;;;;27.31;100.00;100439.69;7397879;19;20490;-61
2022/08/04 08:32:14;;;;;;;26.03;12.20;;;;;;;27.43;100.00;100303.34;7391120;19;20738;-61
2022/08/04 08:34:44;;;;;;;11.47;4.77;;;;;;;27.63;100.00;100194.06;7397628;19;20387;-61
2022/08/04 08:37:20;;;;;;;14.07;5.30;;;;;;;27.58;100.00;100174.81;7391988;19;20395;-61
2022/08/04 08:39:55;;;;;;;18.20;9.17;;;;;;;27.51;100.00;100215.69;7394880;19;20411;-60
2022/08/04 08:42:53;;;;;;;12.27;5.17;;;;;;;27.48;100.00;100237.00;7390256;19;20403;-61
2022/08/04 08:45:48;;;;;;;84.00;42.63;;;;;;;27.43;100.00;100265.44;7397282;19;20910;-61
2022/08/04 08:48:40;;;;;;;14.00;6.60;;;;;;;27.48;100.00;100439.13;7389420;19;20422;-61
2022/08/04 08:51:52;;;;;;;56.10;29.43;;;;;;;27.51;100.00;100377.25;7397176;19;20729;-60
2022/08/04 08:54:46;;;;;;;17.43;7.23;;;;;;;27.55;100.00;100476.88;7387929;19;20407;-62
2022/08/04 08:57:24;;;;;;;15.03;9.10;;;;;;;27.71;100.00;100550.56;7388927;19;20386;-61
2022/08/04 09:00:04;;;;;;;30.53;16.80;;;;;;;27.83;100.00;100574.00;7394431;19;20418;-61
2022/08/04 09:03:08;;;;;;;16.80;9.47;;;;;;;28.02;100.00;100651.13;7388190;19;20735;-61
2022/08/04 09:06:00;;;;;;;14.80;4.50;;;;;;;28.19;100.00;100758.41;7396572;19;20387;-61
2022/08/04 09:08:45;;;;;;;9.93;5.37;;;;;;;28.42;100.00;100865.56;7389697;19;20430;-61
2022/08/04 09:11:22;;;;;;;8.33;4.00;;;;;;;28.50;100.00;100911.28;7396550;19;20384;-60
2022/08/04 09:13:56;;;;;;;15.23;6.40;;;;;;;28.57;100.00;100917.28;7389896;19;20419;-62
2022/08/04 09:16:31;;;;;;;7.37;4.17;;;;;;;28.63;100.00;100911.78;7395413;19;20942;-62
2022/08/04 09:19:05;;;;;;;12.40;6.50;;;;;;;28.70;100.00;100936.31;7387422;19;20437;-61
2022/08/04 09:21:39;;;;;;;18.83;11.87;;;;;;;28.73;100.00;100932.72;7399339;19;20395;-61
2022/08/04 09:24:13;;;;;;;9.07;4.77;;;;;;;28.75;100.00;100926.44;7390569;19;20408;-61
2022/08/04 09:27:10;;;;;;;21.23;12.43;;;;;;;28.90;100.00;100925.09;7390432;19;20723;-61
2022/08/04 09:29:47;;;;;;;13.73;7.20;;;;;;;28.87;100.00;100930.53;7393710;19;20449;-61
2022/08/04 09:32:25;;;;;;;17.10;9.23;;;;;;;29.09;100.00;100924.50;7390005;19;20386;-61
2022/08/04 09:35:01;;;;;;;6.83;3.70;;;;;;;28.98;100.00;100912.44;7395876;19;20387;-62
2022/08/04 09:37:44;;;;;;;13.40;8.83;;;;;;;29.00;100.00;100904.44;7388068;19;20419;-61
2022/08/04 09:40:21;;;;;;;11.27;7.90;;;;;;;29.08;100.00;100886.44;7393145;19;20759;-61
2022/08/04 09:43:13;;;;;;;19.40;12.60;;;;;;;29.18;100.00;100860.47;7389140;19;20418;-62
2022/08/04 09:45:50;;;;;;;8.67;6.30;;;;;;;29.45;100.00;100833.84;7395197;19;20917;-61
2022/08/04 09:48:26;;;;;;;9.50;6.13;;;;;;;29.71;100.00;100816.06;7389028;19;20403;-61
2022/08/04 09:51:00;;;;;;;27.30;13.23;;;;;;;29.83;100.00;100803.25;7395421;19;20412;-61
2022/08/04 09:53:42;;;;;;;24.17;18.40;;;;;;;29.95;100.00;100800.09;7391024;19;20403;-61
2022/08/04 09:56:16;;;;;;;8.83;5.83;;;;;;;30.15;100.00;100791.34;7394935;19;20376;-62
2022/08/04 09:58:55;;;;;;;20.27;15.17;;;;;;;30.31;100.00;100782.75;7387665;19;20768;-62
2022/08/04 10:01:26;;;;;;;19.30;11.33;;;;;;;30.61;100.00;100773.56;7394842;19;20398;-61
2022/08/04 10:04:00;;;;;;;37.20;27.30;;;;;;;30.69;100.00;100771.47;7389286;19;20407;-63
2022/08/04 10:06:50;;;;;;;10.77;5.70;;;;;;;30.82;100.00;100762.00;7393386;19;20387;-62
2022/08/04 10:09:32;;;;;;;20.07;14.63;;;;;;;30.79;100.00;100762.16;7386394;19;20763;-62
2022/08/04 10:12:10;;;;;;;7.40;4.30;;;;;;;30.82;100.00;100766.47;7385573;19;20390;-62
2022/08/04 10:14:50;;;;;;;12.57;7.30;;;;;;;30.86;100.00;100749.44;7394308;19;20391;-61
2022/08/04 10:17:45;;;;;;;17.13;10.87;;;;;;;30.82;100.00;100762.00;7388406;19;20435;-61
2022/08/04 10:20:24;;;;;;;19.00;7.43;;;;;;;30.76;100.00;100770.25;7392040;19;20431;-62
2022/08/04 10:23:20;;;;;;;51.07;36.80;;;;;;;30.61;100.00;100778.88;7387661;19;20419;-62
2022/08/04 10:26:03;;;;;;;10.30;6.50;;;;;;;30.62;100.00;100764.63;7394166;19;20390;-61
2022/08/04 10:28:44;;;;;;;10.27;5.10;;;;;;;30.61;100.00;100765.56;7385026;19;20855;-62
2022/08/04 10:31:22;;;;;;;9.63;3.87;;;;;;;30.64;100.00;100753.00;7389111;19;20379;-61
2022/08/04 10:33:56;;;;;;;22.83;14.27;;;;;;;30.79;100.00;100762.16;7384665;19;20413;-61
2022/08/04 10:36:30;;;;;;;11.20;5.23;;;;;;;30.91;100.00;100752.75;7391494;19;20375;-62
2022/08/04 10:39:05;;;;;;;8.47;4.37;;;;;;;30.75;100.00;100741.91;7384654;19;20443;-62
2022/08/04 10:41:37;;;;;;;8.90;6.27;;;;;;;30.52;100.00;100750.88;7390383;19;20451;-61
2022/08/04 10:44:17;;;;;;;22.50;14.80;;;;;;;30.57;100.00;100770.16;7384798;19;20422;-62
2022/08/04 10:46:54;;;;;;;7.67;4.23;;;;;;;30.99;100.00;100753.31;7391288;19;20391;-62
2022/08/04 10:49:25;;;;;;;7.63;5.50;;;;;;;31.35;100.00;100735.75;7383702;19;20937;-61
2022/08/04 10:52:03;;;;;;;6.43;4.30;;;;;;;31.42;100.00;100730.97;7395947;19;20394;-62
2022/08/04 10:54:44;;;;;;;14.03;3.50;;;;;;;31.31;100.00;100731.47;7390851;19;20470;-61
2022/08/04 10:57:17;;;;;;;7.53;4.53;;;;;;;31.42;100.00;100730.97;7385564;19;20380;-62
2022/08/04 10:59:55;;;;;;;7.10;4.00;;;;;;;31.39;100.00;100716.00;7389874;19;20759;-62
2022/08/04 11:02:39;;;;;;;9.47;4.40;;;;;;;31.53;100.00;100718.00;7384247;19;20418;-62
2022/08/04 11:05:17;;;;;;;17.03;4.30;;;;;;;31.64;100.00;100709.50;7386521;19;20415;-62
2022/08/04 11:07:50;;;;;;;8.00;4.60;;;;;;;31.76;100.00;100699.19;7386184;19;20446;-62
2022/08/04 11:10:23;;;;;;;5.93;4.20;;;;;;;31.72;100.00;100703.81;7393868;19;20502;-62
2022/08/04 11:12:57;;;;;;;14.33;3.53;;;;;;;31.69;100.00;100697.75;7385866;19;20959;-62
2022/08/04 11:15:33;;;;;;;11.27;6.70;;;;;;;31.85;100.00;100697.91;7392941;19;20398;-62
2022/08/04 11:18:08;;;;;;;34.13;21.70;;;;;;;32.13;100.00;100694.72;7386797;19;20418;-62
2022/08/04 11:20:51;;;;;;;8.43;5.80;;;;;;;32.10;93.04;100686.03;7392703;19;20395;-62
2022/08/04 11:23:26;;;;;;;5.70;3.37;;;;;;;32.24;92.39;100683.50;7388828;19;20754;-63
2022/08/04 11:26:00;;;;;;;72.27;45.57;;;;;;;32.18;100.00;100684.69;7397731;19;20969;-62
2022/08/04 11:28:39;;;;;;;16.50;7.53;;;;;;;32.44;94.24;100685.19;7392524;19;20418;-62
2022/08/04 11:31:13;;;;;;;18.50;8.33;;;;;;;32.70;86.20;100674.94;7399782;19;20394;-63
2022/08/04 11:33:49;;;;;;;14.97;8.57;;;;;;;32.61;91.57;100675.44;7393678;19;20414;-62
2022/08/04 11:36:24;;;;;;;49.23;34.37;;;;;;;32.69;100.00;100683.03;7398161;19;20402;-62
2022/08/04 11:38:58;;;;;;;14.83;9.40;;;;;;;32.59;89.74;100661.31;7394169;19;20469;-62
2022/08/04 11:41:39;;;;;;;24.63;11.57;;;;;;;32.42;94.68;100663.06;7403400;19;20399;-62
2022/08/04 11:44:10;;;;;;;6.07;4.80;;;;;;;32.63;86.21;100670.00;7395292;19;20425;-62
2022/08/04 11:46:45;;;;;;;14.70;9.37;;;;;;;32.73;83.98;100669.47;7395769;19;20772;-62
2022/08/04 11:49:31;;;;;;;35.67;22.97;;;;;;;32.42;93.38;100670.19;7394908;19;20435;-62
2022/08/04 11:52:22;;;;;;;8.23;5.67;;;;;;;32.30;87.42;100666.34;7392998;19;20422;-62
2022/08/04 11:54:52;;;;;;;25.13;18.63;;;;;;;32.25;100.00;100663.03;7403453;19;21217;-62
2022/08/04 11:57:23;;;;;;;9.60;3.33;;;;;;;32.16;84.32;100648.38;7391130;19;20413;-62
2022/08/04 12:00:08;;;;;;;9.33;5.80;;;;;;;32.04;81.76;100656.03;7394779;19;20822;-62
2022/08/04 12:03:06;;;;;;;19.67;13.63;;;;;;;32.18;86.62;100662.47;7392396;19;20402;-62
2022/08/04 12:05:45;;;;;;;7.73;4.40;;;;;;;32.03;80.66;100653.44;7397995;19;20398;-62
2022/08/04 12:08:31;;;;;;;21.13;13.10;;;;;;;31.97;83.44;100653.75;7391985;19;20419;-62